createdAt,value
2018-02-24T00:03:32.814Z,40.10
2018-02-24T00:08:27.098Z,40.40
2018-02-24T00:13:21.401Z,40.90
2018-02-24T00:18:15.822Z,41.40
2018-02-24T00:23:10.103Z,41.30
2018-02-24T00:28:04.396Z,41.60
2018-02-24T00:32:58.682Z,41.70
2018-02-24T00:37:53.748Z,41.90
2018-02-24T00:42:48.231Z,41.90
2018-02-24T00:47:42.598Z,42.20
2018-02-24T00:52:37.903Z,42.20
2018-02-24T00:57:32.202Z,42.10
2018-02-24T01:02:26.382Z,42.40
2018-02-24T01:07:20.691Z,42.70
2018-02-24T01:12:14.812Z,42.50
2018-02-24T01:17:09.929Z,42.40
2018-02-24T01:22:04.522Z,42.30
2018-02-24T01:26:58.855Z,43.10
2018-02-24T01:31:54.253Z,42.70
2018-02-24T01:36:48.592Z,42.70
2018-02-24T01:41:43.208Z,42.80
2018-02-24T01:46:37.492Z,43.00
2018-02-24T01:51:32.758Z,43.20
2018-02-24T01:56:27.355Z,43.20
2018-02-24T02:01:21.786Z,43.20
2018-02-24T02:06:16.060Z,43.30
2018-02-24T02:11:10.524Z,43.50
2018-02-24T02:16:04.858Z,43.70
2018-02-24T02:20:59.156Z,44.20
2018-02-24T02:25:53.681Z,44.20
2018-02-24T02:30:48.183Z,44.60
2018-02-24T02:35:42.481Z,44.40
2018-02-24T02:40:36.791Z,44.70
2018-02-24T02:45:31.315Z,44.90
2018-02-24T02:50:25.621Z,44.90
2018-02-24T02:55:19.920Z,45.20
2018-02-24T03:00:14.225Z,44.80
2018-02-24T03:05:09.290Z,45.40
2018-02-24T03:10:03.619Z,44.90
2018-02-24T03:14:57.904Z,45.00
2018-02-24T03:19:52.229Z,44.90
2018-02-24T03:24:46.984Z,44.80
2018-02-24T03:29:42.031Z,44.20
2018-02-24T03:34:36.330Z,44.10
2018-02-24T03:39:30.947Z,44.10
2018-02-24T03:44:25.221Z,43.80
2018-02-24T03:49:20.290Z,43.40
2018-02-24T03:54:14.592Z,43.30
2018-02-24T03:59:09.218Z,43.10
2018-02-24T04:04:03.552Z,43.20
2018-02-24T04:08:58.732Z,43.60
2018-02-24T04:13:53.039Z,43.40
2018-02-24T04:18:47.351Z,42.90
2018-02-24T04:23:42.418Z,42.80
2018-02-24T04:28:36.726Z,42.70
2018-02-24T04:33:31.473Z,42.50
2018-02-24T04:38:25.782Z,42.10
2018-02-24T04:43:20.892Z,42.30
2018-02-24T04:48:15.209Z,42.20
2018-02-24T04:53:10.392Z,42.10
2018-02-24T04:58:04.689Z,42.00
2018-02-24T05:02:58.987Z,41.30
2018-02-24T05:07:53.280Z,41.60
2018-02-24T05:12:47.584Z,41.20
2018-02-24T05:17:41.879Z,41.20
2018-02-24T05:22:36.172Z,41.40
2018-02-24T05:27:30.473Z,41.20
2018-02-24T05:32:24.546Z,41.00
2018-02-24T05:37:20.118Z,40.80
2018-02-24T05:42:14.393Z,40.80
2018-02-24T05:47:08.714Z,41.00
2018-02-24T05:52:03.090Z,40.30
2018-02-24T05:56:57.530Z,40.70
2018-02-24T06:01:51.650Z,40.00
2018-02-24T06:06:46.222Z,40.30
2018-02-24T06:11:40.774Z,40.40
2018-02-24T06:16:35.097Z,39.90
2018-02-24T06:21:29.799Z,41.50
2018-02-24T06:26:23.925Z,43.80
2018-02-24T06:31:18.240Z,45.70
2018-02-24T06:36:12.430Z,46.00
2018-02-24T06:41:06.861Z,46.50
2018-02-24T06:46:01.167Z,46.10
2018-02-24T06:50:55.475Z,46.50
2018-02-24T06:55:49.789Z,46.60
2018-02-24T07:00:44.966Z,47.20
2018-02-24T07:05:40.193Z,48.80
2018-02-24T07:10:34.650Z,48.60
2018-02-24T07:15:29.738Z,47.60
2018-02-24T07:20:24.024Z,47.60
2018-02-24T07:25:18.614Z,47.50
2018-02-24T07:30:13.023Z,47.00
2018-02-24T07:35:07.600Z,42.50
2018-02-24T07:40:01.968Z,38.50
2018-02-24T07:44:56.287Z,35.40
2018-02-24T07:49:51.367Z,24.90
2018-02-24T07:54:45.857Z,25.00
2018-02-24T07:59:40.174Z,22.00
2018-02-24T08:04:34.650Z,17.30
2018-02-24T08:09:28.930Z,16.60
2018-02-24T08:14:23.461Z,15.90
2018-02-24T08:19:17.777Z,16.40
2018-02-24T08:24:12.403Z,14.50
2018-02-24T08:29:08.132Z,14.50
2018-02-24T08:34:03.599Z,13.50
2018-02-24T08:38:59.245Z,11.60
2018-02-24T08:43:53.560Z,11.70
2018-02-24T08:48:47.949Z,12.50
2018-02-24T08:53:42.375Z,11.60
2018-02-24T08:58:36.680Z,11.90
2018-02-24T09:03:32.214Z,12.10
2018-02-24T09:08:26.578Z,11.50
2018-02-24T09:13:21.487Z,11.90
2018-02-24T09:18:16.081Z,12.20
2018-02-24T09:23:11.345Z,12.70
2018-02-24T09:28:06.062Z,12.60
2018-02-24T09:33:00.369Z,11.90
2018-02-24T09:37:54.681Z,11.50
2018-02-24T09:42:49.027Z,11.70
2018-02-24T09:47:43.360Z,11.90
2018-02-24T09:52:37.659Z,12.10
2018-02-24T09:57:32.017Z,11.60
2018-02-24T10:02:27.379Z,14.50
2018-02-24T10:07:21.887Z,14.50
2018-02-24T10:12:16.183Z,19.00
2018-02-24T10:17:10.623Z,22.30
2018-02-24T10:22:04.983Z,24.70
2018-02-24T10:26:59.487Z,26.30
2018-02-24T10:31:53.787Z,27.00
2018-02-24T10:36:48.526Z,27.60
2018-02-24T10:41:42.875Z,28.10
2018-02-24T10:46:38.083Z,28.20
2018-02-24T10:51:32.369Z,28.20
2018-02-24T10:56:26.666Z,28.20
2018-02-24T11:01:21.038Z,28.10
2018-02-24T11:06:15.448Z,28.30
2018-02-24T11:11:09.882Z,28.30
2018-02-24T11:16:04.745Z,28.40
2018-02-24T11:20:59.029Z,28.50
2018-02-24T11:25:55.039Z,28.30
2018-02-24T11:30:49.656Z,28.20
2018-02-24T11:35:45.144Z,28.10
2018-02-24T11:40:39.540Z,28.10
2018-02-24T11:45:34.081Z,28.00
2018-02-24T11:50:28.541Z,28.10
2018-02-24T11:55:23.650Z,28.40
2018-02-24T12:00:19.341Z,28.40
2018-02-24T12:05:13.806Z,28.40
2018-02-24T12:10:08.794Z,29.20
2018-02-24T12:15:03.339Z,29.20
2018-02-24T12:19:57.667Z,29.50
2018-02-24T12:24:51.960Z,29.90
2018-02-24T12:29:46.534Z,30.40
2018-02-24T12:34:41.771Z,31.80
2018-02-24T12:39:35.899Z,31.80
2018-02-24T12:44:30.223Z,32.30
2018-02-24T12:49:24.498Z,32.80
2018-02-24T12:54:18.914Z,32.90
2018-02-24T12:59:13.205Z,32.90
2018-02-24T13:04:07.567Z,32.90
2018-02-24T13:09:02.854Z,33.30
2018-02-24T13:13:57.191Z,32.70
2018-02-24T13:18:51.833Z,32.90
2018-02-24T13:23:46.654Z,33.10
2018-02-24T13:28:41.042Z,33.20
2018-02-24T13:33:35.225Z,33.00
2018-02-24T13:38:29.375Z,33.20
2018-02-24T13:43:24.161Z,33.60
2018-02-24T13:48:18.615Z,34.30
2018-02-24T13:53:13.173Z,34.40
2018-02-24T13:58:07.447Z,34.40
2018-02-24T14:03:01.837Z,34.50
2018-02-24T14:07:56.076Z,34.70
2018-02-24T14:12:50.167Z,34.90
2018-02-24T14:17:44.667Z,35.60
2018-02-24T14:22:39.147Z,35.60
2018-02-24T14:27:33.507Z,36.60
2018-02-24T14:32:27.792Z,36.60
2018-02-24T14:37:22.359Z,37.20
2018-02-24T14:42:17.455Z,38.10
2018-02-24T14:47:11.846Z,38.10
2018-02-24T14:52:06.119Z,38.50
2018-02-24T14:57:00.414Z,39.00
2018-02-24T15:01:54.714Z,39.30
2018-02-24T15:06:48.810Z,38.70
2018-02-24T15:11:43.138Z,37.90
2018-02-24T15:16:37.570Z,37.20
2018-02-24T15:21:31.747Z,36.10
2018-02-24T15:26:26.052Z,35.60
2018-02-24T15:31:21.185Z,36.50
2018-02-24T15:36:16.042Z,36.90
2018-02-24T15:41:10.324Z,36.90
2018-02-24T15:46:04.755Z,36.70
2018-02-24T15:50:59.048Z,37.50
2018-02-24T15:55:53.140Z,37.10
2018-02-24T16:00:47.411Z,37.60
2018-02-24T16:05:42.671Z,39.00
2018-02-24T16:10:38.998Z,39.00
2018-02-24T16:15:33.294Z,40.30
2018-02-24T16:20:28.813Z,41.60
2018-02-24T16:25:23.759Z,43.00
2018-02-24T16:30:18.065Z,42.30
2018-02-24T16:35:12.374Z,43.00
2018-02-24T16:40:06.876Z,43.50
2018-02-24T16:45:01.198Z,44.00
2018-02-24T16:49:55.609Z,44.90
2018-02-24T16:54:50.162Z,44.30
2018-02-24T16:59:44.468Z,44.30
2018-02-24T17:04:38.897Z,44.80
2018-02-24T17:09:33.355Z,44.90
2018-02-24T17:14:28.454Z,44.80
2018-02-24T17:19:23.520Z,43.80
2018-02-24T17:24:17.927Z,43.80
2018-02-24T17:29:12.201Z,42.60
2018-02-24T17:34:07.615Z,43.20
2018-02-24T17:39:02.677Z,42.80
2018-02-24T17:43:57.193Z,42.80
2018-02-24T17:48:51.506Z,43.10
2018-02-24T17:53:45.965Z,43.50
2018-02-24T17:58:41.015Z,44.10
2018-02-24T18:03:35.132Z,44.10
2018-02-24T18:08:29.657Z,44.30
2018-02-24T18:13:24.743Z,44.90
2018-02-24T18:18:19.042Z,44.90
2018-02-24T18:23:13.371Z,45.20
2018-02-24T18:28:07.958Z,45.40
2018-02-24T18:33:02.266Z,45.40
2018-02-24T18:37:56.570Z,45.80
2018-02-24T18:42:50.877Z,46.00
2018-02-24T18:47:45.920Z,46.00
2018-02-24T18:52:40.978Z,46.10
2018-02-24T18:57:35.267Z,46.00
2018-02-24T19:02:29.791Z,45.90
2018-02-24T19:07:24.223Z,45.80
2018-02-24T19:12:19.301Z,45.70
2018-02-24T19:17:13.429Z,45.10
2018-02-24T19:22:07.933Z,45.00
2018-02-24T19:27:02.417Z,44.80
2018-02-24T19:31:56.682Z,44.70
2018-02-24T19:36:51.751Z,44.50
2018-02-24T19:41:46.044Z,44.50
2018-02-24T19:46:40.346Z,44.30
2018-02-24T19:51:34.851Z,44.30
2018-02-24T19:56:29.113Z,45.00
2018-02-24T20:01:24.160Z,44.30
2018-02-24T20:06:18.488Z,44.20
2018-02-24T20:11:12.799Z,43.20
2018-02-24T20:16:07.366Z,42.30
2018-02-24T20:21:02.437Z,42.30
2018-02-24T20:25:57.110Z,42.10
2018-02-24T20:31:10.205Z,42.10
2018-02-24T20:36:16.971Z,41.50
2018-02-24T20:41:11.250Z,41.40
2018-02-24T20:46:05.648Z,41.00
2018-02-24T20:50:59.758Z,40.40
2018-02-24T20:55:53.973Z,40.30
2018-02-24T21:00:48.088Z,40.30
2018-02-24T21:05:43.369Z,40.20
2018-02-24T21:10:37.667Z,40.10
2018-02-24T21:15:31.982Z,40.00
2018-02-24T21:20:26.410Z,40.40
2018-02-24T21:25:21.478Z,40.30
2018-02-24T21:30:15.882Z,40.30
2018-02-24T21:35:10.029Z,40.10
2018-02-24T21:40:05.473Z,40.10
2018-02-24T21:45:00.665Z,40.40
2018-02-24T21:49:55.231Z,40.40
2018-02-24T21:54:49.743Z,40.90
2018-02-24T21:59:44.068Z,41.30
2018-02-24T22:04:38.464Z,41.50
2018-02-24T22:09:34.595Z,41.40
2018-02-24T22:14:29.939Z,42.00
2018-02-24T22:19:24.443Z,42.00
2018-02-24T22:24:18.925Z,42.30
2018-02-24T22:29:13.539Z,42.90
2018-02-24T22:34:07.911Z,42.70
2018-02-24T22:39:02.261Z,42.50
2018-02-24T22:43:56.954Z,42.10
2018-02-24T22:48:56.915Z,42.00
2018-02-24T22:53:51.463Z,41.80
2018-02-24T22:58:46.031Z,41.90
2018-02-24T23:03:40.355Z,42.00
2018-02-24T23:08:35.735Z,40.70
2018-02-24T23:13:30.119Z,40.70
2018-02-24T23:18:24.495Z,40.70
2018-02-24T23:23:19.559Z,40.90
2018-02-24T23:28:14.190Z,40.90
2018-02-24T23:33:09.821Z,41.70
2018-02-24T23:38:04.159Z,41.70
2018-02-24T23:42:59.531Z,41.90
2018-02-24T23:47:53.776Z,41.80
2018-02-24T23:52:48.019Z,41.40
2018-02-24T23:57:43.246Z,41.40
